sensor_id;sensor_type;location;lat;lon;timestamp;pressure;altitude;pressure_sealevel;temperature;humidity
46007;BME280;31738;50.188;8.524;2024-02-16T00:02:06;98562.22;;;11.62;88.98
46007;BME280;31738;50.188;8.524;2024-02-16T00:05:16;98562.47;;;11.66;88.34
46007;BME280;31738;50.188;8.524;2024-02-16T00:08:29;98562.19;;;11.67;88.69
46007;BME280;31738;50.188;8.524;2024-02-16T00:11:25;98553.03;;;11.68;88.57
46007;BME280;31738;50.188;8.524;2024-02-16T00:14:07;98560.59;;;11.66;89.06
46007;BME280;31738;50.188;8.524;2024-02-16T00:19:39;98553.00;;;11.73;88.94
46007;BME280;31738;50.188;8.524;2024-02-16T00:22:11;98551.84;;;11.79;88.88
46007;BME280;31738;50.188;8.524;2024-02-16T00:25:16;98554.97;;;11.86;88.62
46007;BME280;31738;50.188;8.524;2024-02-16T00:28:16;98545.16;;;11.77;88.51
46007;BME280;31738;50.188;8.524;2024-02-16T00:31:43;98544.94;;;11.73;88.63
46007;BME280;31738;50.188;8.524;2024-02-16T00:34:44;98548.19;;;11.70;88.94
46007;BME280;31738;50.188;8.524;2024-02-16T00:37:44;98536.91;;;11.68;88.90
46007;BME280;31738;50.188;8.524;2024-02-16T00:49:15;98547.78;;;11.53;88.84
46007;BME280;31738;50.188;8.524;2024-02-16T00:52:35;98538.91;;;11.53;89.14
46007;BME280;31738;50.188;8.524;2024-02-16T00:55:41;98541.00;;;11.61;89.02
46007;BME280;31738;50.188;8.524;2024-02-16T00:58:22;98541.81;;;11.61;88.86
46007;BME280;31738;50.188;8.524;2024-02-16T01:00:54;98541.25;;;11.64;88.92
46007;BME280;31738;50.188;8.524;2024-02-16T01:04:03;98528.34;;;11.66;89.01
46007;BME280;31738;50.188;8.524;2024-02-16T01:07:48;98530.53;;;11.64;88.79
46007;BME280;31738;50.188;8.524;2024-02-16T01:14:42;98530.00;;;11.62;88.76
46007;BME280;31738;50.188;8.524;2024-02-16T01:18:03;98527.84;;;11.59;88.99
46007;BME280;31738;50.188;8.524;2024-02-16T01:20:52;98521.94;;;11.62;88.99
46007;BME280;31738;50.188;8.524;2024-02-16T01:27:49;98512.81;;;11.63;89.00
46007;BME280;31738;50.188;8.524;2024-02-16T01:34:46;98521.59;;;11.69;89.00
46007;BME280;31738;50.188;8.524;2024-02-16T01:38:04;98523.75;;;11.67;88.96
46007;BME280;31738;50.188;8.524;2024-02-16T01:41:01;98520.00;;;11.68;89.15
46007;BME280;31738;50.188;8.524;2024-02-16T01:44:08;98529.41;;;11.65;89.06
46007;BME280;31738;50.188;8.524;2024-02-16T01:46:57;98527.84;;;11.64;89.05
46007;BME280;31738;50.188;8.524;2024-02-16T01:59:09;98535.66;;;11.56;89.02
46007;BME280;31738;50.188;8.524;2024-02-16T02:02:17;98528.19;;;11.53;88.99
46007;BME280;31738;50.188;8.524;2024-02-16T02:05:15;98535.94;;;11.54;89.19
46007;BME280;31738;50.188;8.524;2024-02-16T02:08:35;98536.19;;;11.58;89.23
46007;BME280;31738;50.188;8.524;2024-02-16T02:11:09;98539.44;;;11.55;89.17
46007;BME280;31738;50.188;8.524;2024-02-16T02:13:43;98537.09;;;11.48;89.16
46007;BME280;31738;50.188;8.524;2024-02-16T02:19:39;98536.44;;;11.61;89.34
46007;BME280;31738;50.188;8.524;2024-02-16T02:22:41;98530.81;;;11.58;89.27
46007;BME280;31738;50.188;8.524;2024-02-16T02:33:23;98519.09;;;11.49;89.41
46007;BME280;31738;50.188;8.524;2024-02-16T02:40:25;98510.78;;;11.45;89.34
46007;BME280;31738;50.188;8.524;2024-02-16T02:43:03;98516.69;;;11.47;89.39
46007;BME280;31738;50.188;8.524;2024-02-16T02:45:29;98500.81;;;11.51;89.18
46007;BME280;31738;50.188;8.524;2024-02-16T02:47:57;98496.47;;;11.55;89.45
46007;BME280;31738;50.188;8.524;2024-02-16T02:50:23;98509.31;;;11.58;89.44
46007;BME280;31738;50.188;8.524;2024-02-16T02:52:58;98504.25;;;11.56;89.25
46007;BME280;31738;50.188;8.524;2024-02-16T02:55:26;98509.66;;;11.51;89.29
46007;BME280;31738;50.188;8.524;2024-02-16T02:57:52;98509.03;;;11.59;89.18
46007;BME280;31738;50.188;8.524;2024-02-16T03:00:20;98500.97;;;11.64;89.37
46007;BME280;31738;50.188;8.524;2024-02-16T03:02:49;98508.97;;;11.69;89.57
46007;BME280;31738;50.188;8.524;2024-02-16T03:05:15;98510.53;;;11.75;89.17
46007;BME280;31738;50.188;8.524;2024-02-16T03:11:32;98506.16;;;11.79;89.15
46007;BME280;31738;50.188;8.524;2024-02-16T03:14:20;98507.19;;;11.83;88.73
46007;BME280;31738;50.188;8.524;2024-02-16T03:16:46;98509.81;;;11.88;88.93
46007;BME280;31738;50.188;8.524;2024-02-16T03:19:12;98512.44;;;11.93;88.92
46007;BME280;31738;50.188;8.524;2024-02-16T03:21:48;98507.03;;;11.98;88.47
46007;BME280;31738;50.188;8.524;2024-02-16T03:24:56;98503.28;;;11.94;88.74
46007;BME280;31738;50.188;8.524;2024-02-16T03:27:24;98508.91;;;11.98;88.65
46007;BME280;31738;50.188;8.524;2024-02-16T03:29:50;98514.81;;;12.00;88.29
46007;BME280;31738;50.188;8.524;2024-02-16T03:32:25;98516.09;;;12.02;88.55
46007;BME280;31738;50.188;8.524;2024-02-16T03:34:51;98510.72;;;12.02;88.22
46007;BME280;31738;50.188;8.524;2024-02-16T03:37:43;98511.81;;;12.01;88.50
46007;BME280;31738;50.188;8.524;2024-02-16T03:43:51;98507.22;;;12.02;87.94
46007;BME280;31738;50.188;8.524;2024-02-16T03:46:28;98506.94;;;12.03;88.28
46007;BME280;31738;50.188;8.524;2024-02-16T03:49:57;98509.91;;;12.02;88.51
46007;BME280;31738;50.188;8.524;2024-02-16T03:53:13;98511.31;;;11.99;88.40
46007;BME280;31738;50.188;8.524;2024-02-16T04:02:39;98515.09;;;11.98;88.27
46007;BME280;31738;50.188;8.524;2024-02-16T04:05:40;98520.47;;;11.98;88.05
46007;BME280;31738;50.188;8.524;2024-02-16T04:11:30;98528.81;;;11.97;88.09
46007;BME280;31738;50.188;8.524;2024-02-16T04:14:26;98525.84;;;11.98;88.09
46007;BME280;31738;50.188;8.524;2024-02-16T04:17:05;98535.53;;;11.94;87.92
46007;BME280;31738;50.188;8.524;2024-02-16T04:20:06;98542.75;;;11.99;88.00
46007;BME280;31738;50.188;8.524;2024-02-16T04:23:09;98543.56;;;11.99;88.09
46007;BME280;31738;50.188;8.524;2024-02-16T04:25:53;98543.13;;;11.92;88.06
46007;BME280;31738;50.188;8.524;2024-02-16T04:28:32;98544.13;;;11.96;88.10
46007;BME280;31738;50.188;8.524;2024-02-16T04:31:41;98543.13;;;11.92;87.97
46007;BME280;31738;50.188;8.524;2024-02-16T04:34:24;98548.50;;;11.92;87.78
46007;BME280;31738;50.188;8.524;2024-02-16T04:37:13;98543.13;;;11.92;88.09
46007;BME280;31738;50.188;8.524;2024-02-16T04:40:08;98539.84;;;11.95;87.99
46007;BME280;31738;50.188;8.524;2024-02-16T04:43:25;98540.13;;;11.94;88.16
46007;BME280;31738;50.188;8.524;2024-02-16T04:46:00;98548.97;;;11.94;88.15
46007;BME280;31738;50.188;8.524;2024-02-16T04:48:34;98538.19;;;11.99;87.93
46007;BME280;31738;50.188;8.524;2024-02-16T04:51:32;98532.81;;;11.99;88.31
46007;BME280;31738;50.188;8.524;2024-02-16T04:54:33;98522.06;;;11.99;88.18
46007;BME280;31738;50.188;8.524;2024-02-16T04:58:15;98530.75;;;11.91;88.48
46007;BME280;31738;50.188;8.524;2024-02-16T05:04:04;98534.53;;;11.90;88.63
46007;BME280;31738;50.188;8.524;2024-02-16T05:06:49;98533.63;;;12.00;88.39
46007;BME280;31738;50.188;8.524;2024-02-16T05:09:24;98527.78;;;11.93;88.66
46007;BME280;31738;50.188;8.524;2024-02-16T05:12:24;98524.78;;;11.94;88.61
46007;BME280;31738;50.188;8.524;2024-02-16T05:21:19;98528.59;;;11.93;88.88
46007;BME280;31738;50.188;8.524;2024-02-16T05:25:04;98523.31;;;11.83;88.83
46007;BME280;31738;50.188;8.524;2024-02-16T05:49:24;98528.94;;;11.63;89.24
46007;BME280;31738;50.188;8.524;2024-02-16T05:52:39;98529.44;;;11.60;89.45
46007;BME280;31738;50.188;8.524;2024-02-16T06:10:35;98533.22;;;11.59;89.66
46007;BME280;31738;50.188;8.524;2024-02-16T06:14:14;98531.06;;;11.61;89.56
46007;BME280;31738;50.188;8.524;2024-02-16T06:16:58;98524.56;;;11.67;89.46
46007;BME280;31738;50.188;8.524;2024-02-16T06:19:53;98541.25;;;11.64;89.63
46007;BME280;31738;50.188;8.524;2024-02-16T06:22:32;98538.81;;;11.68;89.32
46007;BME280;31738;50.188;8.524;2024-02-16T06:25:19;98542.00;;;11.70;89.63
46007;BME280;31738;50.188;8.524;2024-02-16T06:31:23;98538.53;;;11.69;89.58
46007;BME280;31738;50.188;8.524;2024-02-16T06:33:48;98542.25;;;11.73;89.35
46007;BME280;31738;50.188;8.524;2024-02-16T06:36:14;98544.59;;;11.80;89.00
46007;BME280;31738;50.188;8.524;2024-02-16T06:38:42;98552.88;;;11.83;89.34
46007;BME280;31738;50.188;8.524;2024-02-16T06:41:54;98549.41;;;11.83;89.02
46007;BME280;31738;50.188;8.524;2024-02-16T06:44:25;98558.47;;;11.87;88.99
46007;BME280;31738;50.188;8.524;2024-02-16T06:47:04;98551.75;;;11.89;88.99
46007;BME280;31738;50.188;8.524;2024-02-16T06:49:30;98552.81;;;11.88;89.00
46007;BME280;31738;50.188;8.524;2024-02-16T06:51:59;98564.38;;;11.89;88.77
46007;BME280;31738;50.188;8.524;2024-02-16T06:54:25;98552.25;;;11.91;88.54
46007;BME280;31738;50.188;8.524;2024-02-16T06:56:50;98555.47;;;11.93;88.48
46007;BME280;31738;50.188;8.524;2024-02-16T06:59:17;98564.03;;;11.95;88.59
46007;BME280;31738;50.188;8.524;2024-02-16T07:01:43;98571.53;;;11.98;88.39
46007;BME280;31738;50.188;8.524;2024-02-16T07:04:08;98565.06;;;11.99;88.28
46007;BME280;31738;50.188;8.524;2024-02-16T07:06:35;98576.84;;;12.03;88.29
46007;BME280;31738;50.188;8.524;2024-02-16T07:09:00;98585.41;;;12.05;88.34
46007;BME280;31738;50.188;8.524;2024-02-16T07:11:27;98579.47;;;12.08;88.19
46007;BME280;31738;50.188;8.524;2024-02-16T07:14:00;98584.28;;;12.12;88.01
46007;BME280;31738;50.188;8.524;2024-02-16T07:16:27;98586.44;;;12.09;87.98
46007;BME280;31738;50.188;8.524;2024-02-16T07:18:53;98590.84;;;12.00;88.29
46007;BME280;31738;50.188;8.524;2024-02-16T07:21:18;98599.88;;;12.09;88.20
46007;BME280;31738;50.188;8.524;2024-02-16T07:23:46;98597.66;;;12.17;87.80
46007;BME280;31738;50.188;8.524;2024-02-16T07:26:11;98603.78;;;12.22;87.66
46007;BME280;31738;50.188;8.524;2024-02-16T07:28:38;98602.91;;;12.27;87.42
46007;BME280;31738;50.188;8.524;2024-02-16T07:31:04;98605.56;;;12.32;87.53
46007;BME280;31738;50.188;8.524;2024-02-16T07:33:29;98607.09;;;12.38;87.32
46007;BME280;31738;50.188;8.524;2024-02-16T07:35:58;98604.88;;;12.45;87.14
46007;BME280;31738;50.188;8.524;2024-02-16T07:38:23;98616.63;;;12.49;87.04
46007;BME280;31738;50.188;8.524;2024-02-16T07:40:52;98624.66;;;12.54;86.88
46007;BME280;31738;50.188;8.524;2024-02-16T07:43:33;98625.66;;;12.58;86.79
46007;BME280;31738;50.188;8.524;2024-02-16T07:46:06;98626.97;;;12.60;86.50
46007;BME280;31738;50.188;8.524;2024-02-16T07:48:37;98634.69;;;12.67;86.49
46007;BME280;31738;50.188;8.524;2024-02-16T07:51:21;98618.50;;;12.72;86.19
46007;BME280;31738;50.188;8.524;2024-02-16T07:53:56;98623.22;;;12.80;86.30
46007;BME280;31738;50.188;8.524;2024-02-16T07:56:32;98628.22;;;12.86;85.96
46007;BME280;31738;50.188;8.524;2024-02-16T07:59:06;98623.06;;;12.90;86.34
46007;BME280;31738;50.188;8.524;2024-02-16T08:01:36;98615.22;;;12.93;86.22
46007;BME280;31738;50.188;8.524;2024-02-16T08:04:35;98618.94;;;12.97;86.12
46007;BME280;31738;50.188;8.524;2024-02-16T08:07:07;98621.31;;;12.99;86.01
46007;BME280;31738;50.188;8.524;2024-02-16T08:09:58;98632.78;;;13.09;86.29
46007;BME280;31738;50.188;8.524;2024-02-16T08:12:31;98630.38;;;13.08;86.20
46007;BME280;31738;50.188;8.524;2024-02-16T08:15:11;98647.56;;;13.12;86.00
46007;BME280;31738;50.188;8.524;2024-02-16T08:18:02;98652.44;;;13.10;86.16
46007;BME280;31738;50.188;8.524;2024-02-16T08:20:31;98639.19;;;13.13;86.08
46007;BME280;31738;50.188;8.524;2024-02-16T08:23:24;98643.63;;;13.23;85.98
46007;BME280;31738;50.188;8.524;2024-02-16T08:25:51;98635.03;;;13.21;86.21
46007;BME280;31738;50.188;8.524;2024-02-16T08:28:31;98626.91;;;13.26;85.94
46007;BME280;31738;50.188;8.524;2024-02-16T08:31:06;98645.16;;;13.29;85.86
46007;BME280;31738;50.188;8.524;2024-02-16T08:33:46;98639.69;;;13.34;85.75
46007;BME280;31738;50.188;8.524;2024-02-16T08:36:51;98639.59;;;13.39;85.61
46007;BME280;31738;50.188;8.524;2024-02-16T08:39:32;98642.06;;;13.35;85.47
46007;BME280;31738;50.188;8.524;2024-02-16T08:43:05;98650.91;;;13.41;85.51
46007;BME280;31738;50.188;8.524;2024-02-16T08:45:38;98650.97;;;13.36;85.63
46007;BME280;31738;50.188;8.524;2024-02-16T08:48:41;98650.31;;;13.44;85.33
46007;BME280;31738;50.188;8.524;2024-02-16T08:51:20;98649.56;;;13.38;85.44
46007;BME280;31738;50.188;8.524;2024-02-16T08:54:14;98657.16;;;13.36;85.12
46007;BME280;31738;50.188;8.524;2024-02-16T08:56:45;98654.09;;;13.43;85.37
46007;BME280;31738;50.188;8.524;2024-02-16T08:59:28;98666.97;;;13.46;85.27
46007;BME280;31738;50.188;8.524;2024-02-16T09:01:59;98665.91;;;13.47;85.11
46007;BME280;31738;50.188;8.524;2024-02-16T09:04:26;98660.44;;;13.52;85.02
46007;BME280;31738;50.188;8.524;2024-02-16T09:06:51;98662.53;;;13.55;85.30
46007;BME280;31738;50.188;8.524;2024-02-16T09:09:17;98667.81;;;13.60;84.87
46007;BME280;31738;50.188;8.524;2024-02-16T09:11:42;98668.34;;;13.62;85.03
46007;BME280;31738;50.188;8.524;2024-02-16T09:14:07;98676.13;;;13.63;85.20
46007;BME280;31738;50.188;8.524;2024-02-16T09:16:33;98677.72;;;13.64;85.24
46007;BME280;31738;50.188;8.524;2024-02-16T09:18:59;98676.34;;;13.67;85.15
46007;BME280;31738;50.188;8.524;2024-02-16T09:21:24;98681.16;;;13.70;84.96
46007;BME280;31738;50.188;8.524;2024-02-16T09:23:52;98682.75;;;13.71;84.73
46007;BME280;31738;50.188;8.524;2024-02-16T09:26:18;98684.34;;;13.72;84.77
46007;BME280;31738;50.188;8.524;2024-02-16T09:28:43;98684.03;;;13.73;84.58
46007;BME280;31738;50.188;8.524;2024-02-16T09:31:09;98688.84;;;13.76;84.60
46007;BME280;31738;50.188;8.524;2024-02-16T09:33:34;98688.53;;;13.78;84.62
46007;BME280;31738;50.188;8.524;2024-02-16T09:36:00;98694.44;;;13.80;84.63
46007;BME280;31738;50.188;8.524;2024-02-16T09:38:26;98694.38;;;13.85;84.59
46007;BME280;31738;50.188;8.524;2024-02-16T09:40:51;98694.09;;;13.87;84.56
46007;BME280;31738;50.188;8.524;2024-02-16T09:43:28;98699.09;;;13.93;84.60
46007;BME280;31738;50.188;8.524;2024-02-16T09:45:58;98702.56;;;13.94;84.35
46007;BME280;31738;50.188;8.524;2024-02-16T09:48:26;98704.97;;;13.95;84.34
46007;BME280;31738;50.188;8.524;2024-02-16T09:50:54;98707.59;;;14.00;84.03
46007;BME280;31738;50.188;8.524;2024-02-16T09:53:21;98704.81;;;14.05;83.81
46007;BME280;31738;50.188;8.524;2024-02-16T09:55:49;98704.22;;;14.08;83.89
46007;BME280;31738;50.188;8.524;2024-02-16T09:58:16;98706.84;;;14.13;83.68
46007;BME280;31738;50.188;8.524;2024-02-16T10:00:53;98707.25;;;14.20;83.67
46007;BME280;31738;50.188;8.524;2024-02-16T10:03:30;98709.91;;;14.25;83.61
46007;BME280;31738;50.188;8.524;2024-02-16T10:06:10;98723.88;;;14.27;83.66
46007;BME280;31738;50.188;8.524;2024-02-16T10:08:49;98724.88;;;14.31;83.88
46007;BME280;31738;50.188;8.524;2024-02-16T10:11:16;98730.81;;;14.33;83.62
46007;BME280;31738;50.188;8.524;2024-02-16T10:13:54;98731.72;;;14.42;83.31
46007;BME280;31738;50.188;8.524;2024-02-16T10:16:19;98735.69;;;14.45;83.30
46007;BME280;31738;50.188;8.524;2024-02-16T10:18:45;98748.31;;;14.49;83.13
46007;BME280;31738;50.188;8.524;2024-02-16T10:21:10;98740.59;;;14.56;83.17
46007;BME280;31738;50.188;8.524;2024-02-16T10:23:36;98741.63;;;14.60;82.94
46007;BME280;31738;50.188;8.524;2024-02-16T10:26:01;98751.53;;;14.65;83.37
46007;BME280;31738;50.188;8.524;2024-02-16T10:28:28;98757.13;;;14.68;82.72
46007;BME280;31738;50.188;8.524;2024-02-16T10:30:59;98757.31;;;14.72;82.89
46007;BME280;31738;50.188;8.524;2024-02-16T10:33:31;98758.13;;;14.72;82.77
46007;BME280;31738;50.188;8.524;2024-02-16T10:35:57;98762.91;;;14.75;82.59
46007;BME280;31738;50.188;8.524;2024-02-16T10:38:24;98763.91;;;14.79;82.53
46007;BME280;31738;50.188;8.524;2024-02-16T10:40:51;98769.31;;;14.79;82.53
46007;BME280;31738;50.188;8.524;2024-02-16T10:43:17;98767.13;;;14.81;82.23
46007;BME280;31738;50.188;8.524;2024-02-16T10:45:43;98768.72;;;14.82;82.40
46007;BME280;31738;50.188;8.524;2024-02-16T10:48:10;98771.94;;;14.84;82.42
46007;BME280;31738;50.188;8.524;2024-02-16T10:50:37;98772.94;;;14.88;82.06
46007;BME280;31738;50.188;8.524;2024-02-16T10:53:14;98774.44;;;14.94;81.95
46007;BME280;31738;50.188;8.524;2024-02-16T10:55:41;98778.22;;;14.93;81.99
46007;BME280;31738;50.188;8.524;2024-02-16T10:58:08;98773.34;;;14.95;81.77
46007;BME280;31738;50.188;8.524;2024-02-16T11:00:34;98773.25;;;15.00;81.49
46007;BME280;31738;50.188;8.524;2024-02-16T11:03:02;98776.13;;;15.04;81.42
46007;BME280;31738;50.188;8.524;2024-02-16T11:05:35;98770.31;;;15.10;81.33
46007;BME280;31738;50.188;8.524;2024-02-16T11:08:10;98768.91;;;15.13;81.28
46007;BME280;31738;50.188;8.524;2024-02-16T11:10:36;98770.22;;;15.15;80.84
46007;BME280;31738;50.188;8.524;2024-02-16T11:13:03;98770.91;;;15.21;80.70
46007;BME280;31738;50.188;8.524;2024-02-16T11:15:33;98770.00;;;15.25;80.81
46007;BME280;31738;50.188;8.524;2024-02-16T11:18:03;98764.69;;;15.34;80.56
46007;BME280;31738;50.188;8.524;2024-02-16T11:20:36;98768.63;;;15.42;80.73
46007;BME280;31738;50.188;8.524;2024-02-16T11:23:08;98778.81;;;15.45;80.17
46007;BME280;31738;50.188;8.524;2024-02-16T11:25:34;98776.94;;;15.45;79.97
46007;BME280;31738;50.188;8.524;2024-02-16T11:28:01;98779.50;;;15.50;79.91
46007;BME280;31738;50.188;8.524;2024-02-16T11:30:27;98781.91;;;15.52;79.66
46007;BME280;31738;50.188;8.524;2024-02-16T11:32:53;98785.09;;;15.54;79.53
46007;BME280;31738;50.188;8.524;2024-02-16T11:35:18;98790.50;;;15.54;79.48
46007;BME280;31738;50.188;8.524;2024-02-16T11:37:44;98793.53;;;15.52;79.47
46007;BME280;31738;50.188;8.524;2024-02-16T11:40:12;98793.53;;;15.52;79.33
46007;BME280;31738;50.188;8.524;2024-02-16T11:42:38;98792.72;;;15.52;79.43
46007;BME280;31738;50.188;8.524;2024-02-16T11:45:03;98798.31;;;15.55;79.40
46007;BME280;31738;50.188;8.524;2024-02-16T11:47:29;98793.09;;;15.59;79.32
46007;BME280;31738;50.188;8.524;2024-02-16T11:50:09;98794.28;;;15.66;79.31
46007;BME280;31738;50.188;8.524;2024-02-16T11:52:41;98793.88;;;15.73;79.32
46007;BME280;31738;50.188;8.524;2024-02-16T11:55:10;98788.59;;;15.90;78.91
46007;BME280;31738;50.188;8.524;2024-02-16T11:57:37;98783.25;;;15.98;78.64
46007;BME280;31738;50.188;8.524;2024-02-16T12:00:04;98787.25;;;16.01;78.08
46007;BME280;31738;50.188;8.524;2024-02-16T12:02:35;98794.59;;;16.00;78.37
46007;BME280;31738;50.188;8.524;2024-02-16T12:05:00;98791.69;;;15.97;78.04
46007;BME280;31738;50.188;8.524;2024-02-16T12:07:26;98804.41;;;15.96;78.24
46007;BME280;31738;50.188;8.524;2024-02-16T12:09:59;98805.53;;;15.95;78.23
46007;BME280;31738;50.188;8.524;2024-02-16T12:12:25;98808.03;;;15.92;77.96
46007;BME280;31738;50.188;8.524;2024-02-16T12:14:52;98809.63;;;15.93;77.79
46007;BME280;31738;50.188;8.524;2024-02-16T12:17:18;98811.25;;;15.94;78.11
46007;BME280;31738;50.188;8.524;2024-02-16T12:19:44;98809.81;;;15.96;77.85
46007;BME280;31738;50.188;8.524;2024-02-16T12:22:10;98806.03;;;15.97;77.94
46007;BME280;31738;50.188;8.524;2024-02-16T12:24:37;98810.63;;;15.97;77.81
46007;BME280;31738;50.188;8.524;2024-02-16T12:27:02;98811.25;;;15.94;78.07
46007;BME280;31738;50.188;8.524;2024-02-16T12:29:28;98806.34;;;15.96;78.21
46007;BME280;31738;50.188;8.524;2024-02-16T12:31:53;98803.78;;;15.99;78.00
46007;BME280;31738;50.188;8.524;2024-02-16T12:34:19;98804.50;;;16.05;78.23
46007;BME280;31738;50.188;8.524;2024-02-16T12:36:44;98809.16;;;16.13;77.88
46007;BME280;31738;50.188;8.524;2024-02-16T12:39:10;98802.88;;;16.26;77.64
46007;BME280;31738;50.188;8.524;2024-02-16T12:41:38;98807.41;;;16.39;77.24
46007;BME280;31738;50.188;8.524;2024-02-16T12:44:04;98814.22;;;16.50;76.26
46007;BME280;31738;50.188;8.524;2024-02-16T12:46:31;98822.09;;;16.60;76.43
46007;BME280;31738;50.188;8.524;2024-02-16T12:48:56;98822.75;;;16.65;75.80
46007;BME280;31738;50.188;8.524;2024-02-16T12:51:22;98819.91;;;16.70;75.62
46007;BME280;31738;50.188;8.524;2024-02-16T12:53:48;98820.06;;;16.74;74.95
46007;BME280;31738;50.188;8.524;2024-02-16T12:56:13;98823.28;;;16.76;74.42
46007;BME280;31738;50.188;8.524;2024-02-16T12:58:39;98822.19;;;16.77;74.38
46007;BME280;31738;50.188;8.524;2024-02-16T13:01:05;98835.75;;;16.77;74.54
46007;BME280;31738;50.188;8.524;2024-02-16T13:03:34;98841.94;;;16.77;74.00
46007;BME280;31738;50.188;8.524;2024-02-16T13:06:01;98837.31;;;16.78;74.02
46007;BME280;31738;50.188;8.524;2024-02-16T13:08:27;98837.31;;;16.78;73.70
46007;BME280;31738;50.188;8.524;2024-02-16T13:10:53;98840.53;;;16.80;73.95
46007;BME280;31738;50.188;8.524;2024-02-16T13:13:18;98842.13;;;16.81;73.95
46007;BME280;31738;50.188;8.524;2024-02-16T13:15:45;98838.28;;;16.82;73.71
46007;BME280;31738;50.188;8.524;2024-02-16T13:18:13;98842.13;;;16.81;73.64
46007;BME280;31738;50.188;8.524;2024-02-16T13:20:39;98846.72;;;16.80;74.12
46007;BME280;31738;50.188;8.524;2024-02-16T13:23:04;98842.13;;;16.81;73.96
46007;BME280;31738;50.188;8.524;2024-02-16T13:25:30;98842.44;;;16.79;73.81
46007;BME280;31738;50.188;8.524;2024-02-16T13:27:55;98852.00;;;16.77;73.93
46007;BME280;31738;50.188;8.524;2024-02-16T13:30:21;98847.16;;;16.74;74.17
46007;BME280;31738;50.188;8.524;2024-02-16T13:32:46;98849.41;;;16.72;74.23
46007;BME280;31738;50.188;8.524;2024-02-16T13:35:12;98843.00;;;16.68;74.55
46007;BME280;31738;50.188;8.524;2024-02-16T13:37:39;98845.22;;;16.66;74.42
46007;BME280;31738;50.188;8.524;2024-02-16T13:40:07;98849.03;;;16.65;74.33
46007;BME280;31738;50.188;8.524;2024-02-16T13:42:41;98845.22;;;16.66;74.55
46007;BME280;31738;50.188;8.524;2024-02-16T13:45:07;98849.03;;;16.65;74.34
46007;BME280;31738;50.188;8.524;2024-02-16T13:47:33;98832.47;;;16.66;74.54
46007;BME280;31738;50.188;8.524;2024-02-16T13:49:59;98840.78;;;16.70;74.44
46007;BME280;31738;50.188;8.524;2024-02-16T13:52:25;98846.19;;;16.70;74.53
46007;BME280;31738;50.188;8.524;2024-02-16T13:54:51;98844.59;;;16.69;74.28
46007;BME280;31738;50.188;8.524;2024-02-16T13:57:17;98839.00;;;16.65;74.65
46007;BME280;31738;50.188;8.524;2024-02-16T13:59:43;98848.06;;;16.61;74.74
46007;BME280;31738;50.188;8.524;2024-02-16T14:02:09;98849.28;;;16.55;74.89
46007;BME280;31738;50.188;8.524;2024-02-16T14:04:36;98848.19;;;16.56;75.08
46007;BME280;31738;50.188;8.524;2024-02-16T14:07:01;98855.34;;;16.52;75.65
46007;BME280;31738;50.188;8.524;2024-02-16T14:09:27;98859.16;;;16.51;76.15
46007;BME280;31738;50.188;8.524;2024-02-16T14:11:53;98853.75;;;16.51;76.23
46007;BME280;31738;50.188;8.524;2024-02-16T14:14:24;98854.06;;;16.49;77.01
46007;BME280;31738;50.188;8.524;2024-02-16T14:16:50;98859.94;;;16.51;76.96
46007;BME280;31738;50.188;8.524;2024-02-16T14:19:15;98859.63;;;16.53;77.00
46007;BME280;31738;50.188;8.524;2024-02-16T14:21:42;98849.59;;;16.53;77.33
46007;BME280;31738;50.188;8.524;2024-02-16T14:24:08;98854.53;;;16.51;77.67
46007;BME280;31738;50.188;8.524;2024-02-16T14:26:36;98854.84;;;16.50;77.96
46007;BME280;31738;50.188;8.524;2024-02-16T14:29:01;98857.53;;;16.50;77.47
46007;BME280;31738;50.188;8.524;2024-02-16T14:31:27;98855.34;;;16.52;77.42
46007;BME280;31738;50.188;8.524;2024-02-16T14:33:52;98859.94;;;16.51;77.44
46007;BME280;31738;50.188;8.524;2024-02-16T14:36:18;98857.22;;;16.51;77.10
46007;BME280;31738;50.188;8.524;2024-02-16T14:38:43;98857.53;;;16.50;77.17
46007;BME280;31738;50.188;8.524;2024-02-16T14:41:08;98865.97;;;16.48;77.02
46007;BME280;31738;50.188;8.524;2024-02-16T14:43:34;98865.16;;;16.48;77.00
46007;BME280;31738;50.188;8.524;2024-02-16T14:46:00;98860.88;;;16.47;76.81
46007;BME280;31738;50.188;8.524;2024-02-16T14:48:26;98858.97;;;16.47;77.04
46007;BME280;31738;50.188;8.524;2024-02-16T14:50:52;98868.38;;;16.50;76.81
46007;BME280;31738;50.188;8.524;2024-02-16T14:53:21;98876.00;;;16.48;77.10
46007;BME280;31738;50.188;8.524;2024-02-16T14:55:47;98878.53;;;16.44;76.52
46007;BME280;31738;50.188;8.524;2024-02-16T14:58:13;98873.41;;;16.43;76.62
46007;BME280;31738;50.188;8.524;2024-02-16T15:00:39;98877.81;;;16.39;76.81
46007;BME280;31738;50.188;8.524;2024-02-16T15:03:07;98880.53;;;16.39;76.96
46007;BME280;31738;50.188;8.524;2024-02-16T15:05:58;98874.50;;;16.42;76.91
46007;BME280;31738;50.188;8.524;2024-02-16T15:08:26;98889.09;;;16.32;76.83
46007;BME280;31738;50.188;8.524;2024-02-16T15:11:51;98881.28;;;16.31;77.18
46007;BME280;31738;50.188;8.524;2024-02-16T15:14:54;98892.72;;;16.28;77.44
46007;BME280;31738;50.188;8.524;2024-02-16T15:17:25;98881.59;;;16.16;77.52
46007;BME280;31738;50.188;8.524;2024-02-16T15:19:58;98888.75;;;16.12;78.10
46007;BME280;31738;50.188;8.524;2024-02-16T15:25:31;98899.97;;;16.05;78.95
46007;BME280;31738;50.188;8.524;2024-02-16T15:28:23;98890.88;;;16.01;78.70
46007;BME280;31738;50.188;8.524;2024-02-16T15:30:52;98889.69;;;15.94;79.42
46007;BME280;31738;50.188;8.524;2024-02-16T15:33:20;98887.59;;;15.91;79.48
46007;BME280;31738;50.188;8.524;2024-02-16T15:36:27;98890.09;;;15.87;79.53
46007;BME280;31738;50.188;8.524;2024-02-16T15:38:59;98898.03;;;15.84;80.06
46007;BME280;31738;50.188;8.524;2024-02-16T15:41:30;98886.22;;;15.80;80.00
46007;BME280;31738;50.188;8.524;2024-02-16T15:44:12;98885.09;;;15.81;80.37
46007;BME280;31738;50.188;8.524;2024-02-16T15:46:41;98885.72;;;15.78;80.50
46007;BME280;31738;50.188;8.524;2024-02-16T15:49:18;98892.22;;;15.77;80.73